Terminal Aerodrome Forecast
Issued by NWS Quad Cities IA IL

Home | Current Version | Previous Version | Text Only | Print | Product List | Glossary On
Versions: 1 2 3 4 5 6 7 8 9 10 11 12 13 14 15 16 17 18 19 20 21 22 23 24
601
FTUS43 KDVN 140342 AAB
TAFMLI
TAF AMD
KMLI 140342Z 1404/1424 06009KT P6SM SCT015 BKN150
     FM141400 34006KT P6SM OVC035=

USA.gov is the U.S. government's official web portal to all federal, state and local government web resources and services.